Time;durP1;ratioP1;P1;durP2;ratioP2;P2;SDS_P1;SDS_P2;PMS_P1;PMS_P2;Temp;Humidity;BMP_temperature;BMP_pressure;BME280_temperature;BME280_humidity;BME280_pressure;Samples;Min_cycle;Max_cycle;Signal;HPM_P1;HPM_P2
2022/11/22 00:01:03;;;;;;;72.68;47.53;;;77.40;2227.20;;;;;;4989076;28;20538;-59
2022/11/22 00:03:29;;;;;;;83.40;52.08;;;77.40;2227.20;;;;;;4989313;28;20109;-59
2022/11/22 00:05:54;;;;;;;66.28;42.53;;;77.30;2227.20;;;;;;4989266;28;20109;-59
2022/11/22 00:08:20;;;;;;;212.93;133.13;;;77.30;2227.20;;;;;;4988571;28;20388;-59
2022/11/22 00:10:49;;;;;;;67.55;46.42;;;77.40;2227.20;;;;;;4990264;28;20177;-59
2022/11/22 00:13:19;;;;;;;104.00;65.70;;;77.40;2227.20;;;;;;4992957;28;20038;-65
2022/11/22 00:15:56;;;;;;;107.90;69.70;;;77.40;2227.20;;;;;;5000808;28;20061;-59
2022/11/22 00:18:22;;;;;;;100.10;61.90;;;77.40;2227.20;;;;;;5012681;28;20038;-67
2022/11/22 00:20:47;;;;;;;108.22;65.90;;;77.40;2227.20;;;;;;5012346;28;20511;-59
2022/11/22 00:23:13;;;;;;;71.05;42.03;;;77.40;2227.20;;;;;;5012197;28;20034;-60
2022/11/22 00:25:39;;;;;;;49.28;32.42;;;77.30;2227.20;;;;;;5012148;28;20037;-61
2022/11/22 00:28:04;;;;;;;50.25;33.53;;;77.10;2227.20;;;;;;5012530;28;20058;-59
2022/11/22 00:30:30;;;;;;;42.38;30.27;;;77.10;2227.20;;;;;;5014529;28;20491;-58
2022/11/22 00:32:56;;;;;;;39.60;22.92;;;77.00;2227.20;;;;;;5014342;28;20662;-58
2022/11/22 00:35:21;;;;;;;35.92;22.95;;;76.90;2048.00;;;;;;5015942;28;20462;-67
2022/11/22 00:37:47;;;;;;;20.85;14.27;;;77.20;1868.80;;;;;;5026954;28;20030;-62
2022/11/22 00:40:12;;;;;;;34.60;21.02;;;77.30;2227.20;;;;;;5028911;28;20033;-61
2022/11/22 00:42:38;;;;;;;41.65;27.25;;;77.30;2227.20;;;;;;5028396;28;20029;-59
2022/11/22 00:45:04;;;;;;;45.13;28.77;;;77.20;2227.20;;;;;;5029387;28;20056;-60
2022/11/22 00:47:30;;;;;;;41.13;26.30;;;77.20;2227.20;;;;;;5025424;28;20037;-57
2022/11/22 00:49:56;;;;;;;138.38;78.15;;;77.20;2227.20;;;;;;5030727;28;20527;-59
2022/11/22 00:52:21;;;;;;;175.27;100.68;;;77.20;2227.20;;;;;;5027902;28;20034;-66
2022/11/22 00:54:47;;;;;;;243.18;122.18;;;77.10;1971.20;;;;;;5012143;28;20026;-59
2022/11/22 00:57:13;;;;;;;119.13;68.22;;;77.10;2124.80;;;;;;5015415;28;20057;-61
2022/11/22 00:59:38;;;;;;;144.95;81.68;;;77.20;2227.20;;;;;;5029188;28;20052;-61
2022/11/22 01:02:04;;;;;;;168.35;104.85;;;77.20;2227.20;;;;;;5029183;28;20028;-58
2022/11/22 01:04:30;;;;;;;116.20;71.30;;;77.20;2227.20;;;;;;5027514;28;20029;-60
2022/11/22 01:06:55;;;;;;;95.65;60.15;;;77.20;2227.20;;;;;;5021415;28;20038;-60
2022/11/22 01:09:22;;;;;;;103.95;64.53;;;77.10;2227.20;;;;;;5013165;28;20061;-59
2022/11/22 01:11:49;;;;;;;131.57;74.85;;;76.90;2227.20;;;;;;5013068;28;20038;-59
2022/11/22 01:14:16;;;;;;;140.20;82.20;;;76.80;2227.20;;;;;;5013129;28;20050;-65
2022/11/22 01:16:41;;;;;;;103.97;60.00;;;76.80;2227.20;;;;;;5012983;28;20050;-60
2022/11/22 01:19:08;;;;;;;119.13;73.95;;;76.80;1920.00;;;;;;5013188;28;20030;-58
2022/11/22 01:21:33;;;;;;;115.65;73.38;;;76.90;2227.20;;;;;;5013017;28;20376;-59
2022/11/22 01:23:59;;;;;;;110.68;63.80;;;76.90;2227.20;;;;;;5012867;28;20026;-58
2022/11/22 01:26:25;;;;;;;98.40;54.83;;;76.90;2227.20;;;;;;5012978;28;20388;-59
2022/11/22 01:28:51;;;;;;;49.60;31.98;;;76.90;2048.00;;;;;;5012623;28;20017;-58
2022/11/22 01:31:17;;;;;;;64.63;37.88;;;76.90;2227.20;;;;;;5012830;28;20122;-59
2022/11/22 01:33:42;;;;;;;69.38;44.75;;;76.90;2227.20;;;;;;5013080;28;20476;-59
2022/11/22 01:36:08;;;;;;;73.60;45.78;;;76.90;2227.20;;;;;;5013058;28;20384;-59
2022/11/22 01:38:34;;;;;;;70.88;45.70;;;77.00;2227.20;;;;;;5012624;28;20465;-59
2022/11/22 01:40:59;;;;;;;65.28;40.88;;;77.00;2227.20;;;;;;5012626;28;20480;-59
2022/11/22 01:43:27;;;;;;;69.90;45.55;;;77.00;2227.20;;;;;;5012757;28;20101;-58
2022/11/22 01:46:02;;;;;;;62.15;38.60;;;77.00;2227.20;;;;;;5012373;28;20033;-60
2022/11/22 01:49:05;;;;;;;55.90;36.53;;;77.00;2227.20;;;;;;5012767;28;20034;-59
2022/11/22 01:51:44;;;;;;;47.30;29.35;;;76.90;2227.20;;;;;;5012334;28;20038;-59
2022/11/22 01:54:24;;;;;;;61.75;36.08;;;76.90;2227.20;;;;;;5012323;28;20112;-59
2022/11/22 01:56:57;;;;;;;44.38;29.75;;;77.00;2227.20;;;;;;5012334;28;20026;-59
2022/11/22 01:59:26;;;;;;;51.97;32.92;;;77.00;2227.20;;;;;;5012297;28;20484;-59
2022/11/22 02:01:53;;;;;;;51.05;31.38;;;77.00;2227.20;;;;;;5012254;28;20045;-59
2022/11/22 02:04:20;;;;;;;49.38;29.27;;;77.00;2176.00;;;;;;5012402;28;20030;-59
2022/11/22 02:06:54;;;;;;;42.40;27.17;;;77.00;2227.20;;;;;;5012288;28;20030;-59
2022/11/22 02:09:21;;;;;;;48.90;28.90;;;76.90;2227.20;;;;;;5012126;28;20032;-58
2022/11/22 02:11:52;;;;;;;56.45;35.80;;;77.10;2227.20;;;;;;5012097;28;20069;-59
2022/11/22 02:14:23;;;;;;;59.78;36.55;;;77.00;2227.20;;;;;;5012144;28;20431;-60
2022/11/22 02:16:49;;;;;;;67.80;39.47;;;77.10;2227.20;;;;;;5011812;28;20049;-58
2022/11/22 02:19:21;;;;;;;51.70;34.03;;;77.20;2227.20;;;;;;5012116;28;20037;-59
2022/11/22 02:21:53;;;;;;;69.35;42.25;;;77.20;2227.20;;;;;;5012018;28;20088;-59
2022/11/22 02:24:25;;;;;;;126.20;74.43;;;77.20;1996.80;;;;;;5011859;28;20057;-64
2022/11/22 02:26:51;;;;;;;91.13;54.45;;;77.00;2227.20;;;;;;5011788;28;20026;-66
2022/11/22 02:29:17;;;;;;;85.43;59.22;;;76.80;2124.80;;;;;;5011826;28;20388;-60
2022/11/22 02:31:45;;;;;;;68.93;45.50;;;76.80;2227.20;;;;;;5011409;28;20480;-60
2022/11/22 02:34:13;;;;;;;244.30;115.78;;;76.80;2227.20;;;;;;5011145;28;20056;-63
2022/11/22 02:36:44;;;;;;;130.77;71.53;;;76.80;1996.80;;;;;;5011985;28;20028;-59
2022/11/22 02:39:13;;;;;;;66.90;38.65;;;76.90;2227.20;;;;;;5011688;28;20125;-63
2022/11/22 02:41:39;;;;;;;48.17;25.80;;;77.00;1945.60;;;;;;5011659;28;20088;-59
2022/11/22 02:44:08;;;;;;;35.38;20.08;;;77.30;1843.20;;;;;;5011572;28;20052;-60
2022/11/22 02:46:33;;;;;;;47.97;30.08;;;77.50;2227.20;;;;;;5011250;28;20089;-64
2022/11/22 02:48:59;;;;;;;66.55;39.13;;;77.30;2227.20;;;;;;5011538;28;20492;-58
2022/11/22 02:51:25;;;;;;;53.22;35.80;;;77.20;2227.20;;;;;;5011413;28;20041;-58
2022/11/22 02:53:52;;;;;;;45.85;29.08;;;77.10;2227.20;;;;;;5011222;28;20025;-58
2022/11/22 02:56:18;;;;;;;38.75;24.58;;;76.90;2227.20;;;;;;5011377;28;20026;-58
2022/11/22 02:58:44;;;;;;;27.85;18.25;;;76.90;2227.20;;;;;;5011058;28;20396;-58
2022/11/22 03:01:11;;;;;;;27.05;15.95;;;52.10;2227.20;;;;;;5011177;28;20033;-65
2022/11/22 03:03:37;;;;;;;24.83;13.80;;;52.10;2227.20;;;;;;5011365;28;20034;-58
2022/11/22 03:06:03;;;;;;;22.27;12.05;;;52.10;2227.20;;;;;;4990432;28;20030;-63
2022/11/22 03:08:29;;;;;;;14.88;10.98;;;76.80;2227.20;;;;;;5011063;28;20030;-58
2022/11/22 03:10:57;;;;;;;22.98;10.90;;;76.90;2227.20;;;;;;5011114;28;20034;-58
2022/11/22 03:13:23;;;;;;;45.83;27.33;;;76.80;2227.20;;;;;;5010955;28;20087;-58
2022/11/22 03:15:49;;;;;;;70.93;37.65;;;52.10;2227.20;;;;;;5010841;28;20124;-58
2022/11/22 03:18:15;;;;;;;57.13;34.60;;;51.80;2227.20;;;;;;5011060;28;20080;-58
2022/11/22 03:20:40;;;;;;;54.60;33.65;;;51.80;2227.20;;;;;;5010880;28;20026;-58
2022/11/22 03:23:06;;;;;;;65.18;37.50;;;51.90;2227.20;;;;;;5010920;28;20037;-58
2022/11/22 03:25:32;;;;;;;69.78;37.53;;;51.80;2227.20;;;;;;5010690;28;20058;-58
2022/11/22 03:27:58;;;;;;;64.68;37.28;;;51.80;2227.20;;;;;;5010841;28;20018;-58
2022/11/22 03:30:23;;;;;;;51.70;30.67;;;51.70;2227.20;;;;;;5010727;28;20036;-58
2022/11/22 03:32:49;;;;;;;37.92;23.33;;;51.80;2227.20;;;;;;5010916;28;20041;-58
2022/11/22 03:35:15;;;;;;;39.20;23.13;;;51.80;2227.20;;;;;;5010650;28;20480;-58
2022/11/22 03:37:40;;;;;;;38.03;23.35;;;51.90;2227.20;;;;;;5010553;28;20057;-58
2022/11/22 03:40:07;;;;;;;35.28;22.30;;;51.80;2227.20;;;;;;5010667;28;20022;-58
2022/11/22 03:42:33;;;;;;;30.08;20.90;;;51.80;2227.20;;;;;;5010439;28;20396;-57
2022/11/22 03:44:58;;;;;;;46.30;28.10;;;51.90;2227.20;;;;;;5009863;28;20080;-57
2022/11/22 03:47:24;;;;;;;50.70;30.40;;;51.80;2227.20;;;;;;5010185;28;20105;-58
2022/11/22 03:49:50;;;;;;;36.92;24.05;;;52.00;2227.20;;;;;;5010573;28;20033;-58
2022/11/22 03:52:15;;;;;;;38.22;23.55;;;51.90;2227.20;;;;;;5010477;28;20060;-58
2022/11/22 03:54:41;;;;;;;30.98;21.95;;;52.00;2227.20;;;;;;5010274;28;20030;-59
2022/11/22 03:57:07;;;;;;;28.45;19.83;;;52.00;2227.20;;;;;;5010378;28;20029;-61
2022/11/22 03:59:32;;;;;;;33.28;18.77;;;52.00;2227.20;;;;;;5010265;28;20041;-58
2022/11/22 04:01:58;;;;;;;32.95;21.83;;;76.80;2227.20;;;;;;5010407;28;20030;-58
2022/11/22 04:04:24;;;;;;;35.83;22.15;;;52.10;2227.20;;;;;;5010541;28;20034;-58
2022/11/22 04:06:49;;;;;;;34.03;21.27;;;52.10;2227.20;;;;;;5010161;28;20029;-58
2022/11/22 04:09:15;;;;;;;33.25;17.58;;;52.10;2227.20;;;;;;5010395;28;20105;-58
2022/11/22 04:11:41;;;;;;;25.15;15.18;;;52.10;2227.20;;;;;;5010316;28;20484;-58
2022/11/22 04:16:54;;;;;;;45.60;28.27;;;52.10;2227.20;;;;;;5009985;28;20053;-57
2022/11/22 04:19:20;;;;;;;47.50;30.50;;;52.10;2227.20;;;;;;5010001;28;20026;-58
2022/11/22 04:21:46;;;;;;;31.88;20.80;;;52.10;2227.20;;;;;;5010196;28;20105;-65
2022/11/22 04:26:56;;;;;;;76.68;41.03;;;52.10;2227.20;;;;;;5010466;28;20037;-65
2022/11/22 04:29:23;;;;;;;109.18;57.17;;;76.80;2227.20;;;;;;5009852;28;20465;-58
2022/11/22 04:34:34;;;;;;;20.55;13.55;;;52.10;2227.20;;;;;;5009979;28;20491;-65
2022/11/22 04:37:00;;;;;;;20.13;13.52;;;52.00;2227.20;;;;;;5010040;28;20052;-58
2022/11/22 04:39:26;;;;;;;20.15;12.48;;;51.90;2227.20;;;;;;5009833;28;20026;-58
2022/11/22 04:44:41;;;;;;;45.90;29.52;;;51.80;2227.20;;;;;;5010345;28;20127;-59
2022/11/22 04:47:11;;;;;;;39.20;22.75;;;51.90;2227.20;;;;;;5009885;28;20038;-63
2022/11/22 04:49:37;;;;;;;37.15;23.30;;;51.90;2227.20;;;;;;5009987;28;20042;-57
2022/11/22 04:54:48;;;;;;;41.03;25.50;;;52.00;2227.20;;;;;;5010101;28;20036;-57
2022/11/22 04:57:13;;;;;;;70.80;44.70;;;52.00;2227.20;;;;;;5011617;28;20025;-63
2022/11/22 04:59:39;;;;;;;66.78;43.50;;;51.80;2227.20;;;;;;5013576;28;20456;-59
2022/11/22 05:02:05;;;;;;;62.92;44.95;;;51.80;2227.20;;;;;;5013453;28;20123;-57
2022/11/22 05:04:30;;;;;;;63.28;39.65;;;51.80;2227.20;;;;;;5013243;28;20026;-58
2022/11/22 05:06:56;;;;;;;62.47;42.65;;;51.70;2227.20;;;;;;5013268;28;20038;-58
2022/11/22 05:09:22;;;;;;;69.57;43.22;;;51.70;2227.20;;;;;;5013101;28;20511;-57
2022/11/22 05:11:48;;;;;;;68.30;44.17;;;51.80;2227.20;;;;;;5013406;28;20476;-56
2022/11/22 05:14:14;;;;;;;75.47;47.03;;;51.60;2227.20;;;;;;5013170;28;20026;-57
2022/11/22 05:16:40;;;;;;;101.28;62.97;;;51.50;2099.20;;;;;;5012920;28;20101;-58
2022/11/22 05:19:06;;;;;;;73.32;46.38;;;51.30;1945.60;;;;;;5013171;28;20118;-57
2022/11/22 05:21:34;;;;;;;56.75;35.10;;;51.20;2227.20;;;;;;5013033;28;20030;-56
2022/11/22 05:24:00;;;;;;;46.28;26.13;;;26.50;2201.60;;;;;;5013027;28;20030;-58
2022/11/22 05:26:31;;;;;;;85.43;51.10;;;51.20;2227.20;;;;;;5013084;28;20038;-64
2022/11/22 05:28:58;;;;;;;69.78;42.58;;;51.30;2150.40;;;;;;5012955;28;20537;-56
2022/11/22 05:31:26;;;;;;;39.95;22.95;;;51.60;2227.20;;;;;;5012571;28;20116;-58
2022/11/22 05:33:53;;;;;;;51.85;33.00;;;52.10;1971.20;;;;;;5012766;28;20030;-57
2022/11/22 05:36:20;;;;;;;55.60;32.47;;;76.80;2227.20;;;;;;5012931;28;20484;-57
2022/11/22 05:38:46;;;;;;;32.67;20.55;;;76.80;2227.20;;;;;;5012970;28;20026;-66
2022/11/22 05:41:13;;;;;;;40.38;26.98;;;77.00;2227.20;;;;;;5012734;28;20026;-66
2022/11/22 05:43:40;;;;;;;85.53;48.08;;;77.20;2227.20;;;;;;5012801;28;20053;-61
2022/11/22 05:46:17;;;;;;;76.97;44.33;;;52.10;2227.20;;;;;;5012596;28;20026;-65
2022/11/22 05:48:44;;;;;;;61.55;37.65;;;76.80;2227.20;;;;;;5012561;28;20037;-58
2022/11/22 05:51:12;;;;;;;55.97;35.70;;;77.10;2227.20;;;;;;5012340;28;20477;-59
2022/11/22 05:53:39;;;;;;;34.60;19.83;;;77.60;2227.20;;;;;;5012560;28;20026;-57
2022/11/22 05:56:06;;;;;;;94.45;54.92;;;77.70;2227.20;;;;;;5012735;28;20022;-58
2022/11/22 05:58:32;;;;;;;59.85;34.00;;;77.70;2227.20;;;;;;5012395;28;20033;-58
2022/11/22 06:01:19;;;;;;;53.85;33.33;;;102.60;2227.20;;;;;;5012275;28;20503;-58
2022/11/22 06:03:46;;;;;;;100.57;59.83;;;102.60;2227.20;;;;;;5012355;28;20514;-60
2022/11/22 06:06:12;;;;;;;51.75;31.70;;;102.50;2227.20;;;;;;5012355;28;20030;-58
2022/11/22 06:08:45;;;;;;;40.88;27.90;;;102.60;2227.20;;;;;;5011552;28;20095;-59
2022/11/22 06:11:18;;;;;;;;;;;77.40;2227.20;;;;;;5012494;28;20017;-59
2022/11/22 06:13:45;;;;;;;49.85;30.83;;;102.40;2227.20;;;;;;5012114;28;20279;-65
2022/11/22 06:16:12;;;;;;;45.38;28.00;;;102.50;2227.20;;;;;;5011851;28;20053;-59
2022/11/22 06:18:37;;;;;;;50.17;35.25;;;102.80;2227.20;;;;;;5012241;28;20045;-57
2022/11/22 06:21:09;;;;;;;66.18;42.40;;;102.70;2227.20;;;;;;5011974;28;20480;-57
2022/11/22 06:23:34;;;;;;;152.85;96.55;;;102.50;2227.20;;;;;;5011707;28;20026;-58
2022/11/22 06:26:04;;;;;;;66.53;43.70;;;77.60;2227.20;;;;;;5011904;28;20030;-57
2022/11/22 06:28:31;;;;;;;67.95;42.10;;;77.70;2227.20;;;;;;5011934;28;20349;-57
2022/11/22 06:31:04;;;;;;;100.80;59.88;;;102.50;2227.20;;;;;;5011849;28;20025;-61
2022/11/22 06:33:30;;;;;;;57.40;42.05;;;102.70;2227.20;;;;;;5011622;28;20033;-66
2022/11/22 06:36:15;;;;;;;316.27;191.75;;;102.80;2227.20;;;;;;5011852;28;20127;-58
2022/11/22 06:38:42;;;;;;;329.75;208.32;;;102.90;2227.20;;;;;;4990759;28;20485;-59
2022/11/22 06:41:10;;;;;;;94.28;55.75;;;102.90;2227.20;;;;;;5008792;28;20129;-58
2022/11/22 06:43:38;;;;;;;172.85;108.32;;;103.00;2227.20;;;;;;5011502;28;20133;-65
2022/11/22 06:46:05;;;;;;;52.72;36.40;;;103.00;2227.20;;;;;;5011392;28;20074;-58
2022/11/22 06:48:33;;;;;;;43.97;31.50;;;103.00;2227.20;;;;;;5011220;28;20038;-62
2022/11/22 06:51:11;;;;;;;71.43;46.50;;;103.10;2227.20;;;;;;5011285;28;20053;-60
2022/11/22 06:53:37;;;;;;;47.42;29.70;;;103.10;2227.20;;;;;;5011419;28;20026;-58
2022/11/22 06:56:08;;;;;;;37.53;26.70;;;103.20;2227.20;;;;;;5011280;28;20531;-58
2022/11/22 06:58:35;;;;;;;93.80;64.85;;;103.00;2227.20;;;;;;5011508;28;20477;-58
2022/11/22 07:01:00;;;;;;;73.78;48.65;;;103.20;2227.20;;;;;;5011373;28;20048;-58
2022/11/22 07:03:26;;;;;;;39.17;28.55;;;103.30;2227.20;;;;;;5011487;28;20508;-59
2022/11/22 07:05:52;;;;;;;46.53;33.22;;;103.30;2227.20;;;;;;5011115;28;20029;-58
2022/11/22 07:08:18;;;;;;;72.07;45.85;;;128.10;2252.80;;;;;;5011309;28;20030;-59
2022/11/22 07:10:44;;;;;;;91.03;66.07;;;103.30;2227.20;;;;;;5011030;28;20108;-59
2022/11/22 07:13:10;;;;;;;30.02;18.38;;;103.30;2227.20;;;;;;5011019;28;20061;-59
2022/11/22 07:15:35;;;;;;;162.55;124.40;;;103.30;2227.20;;;;;;5010732;28;20056;-58
2022/11/22 07:18:01;;;;;;;93.38;74.00;;;128.40;2252.80;;;;;;5010725;28;20033;-58
2022/11/22 07:20:27;;;;;;;57.47;41.83;;;128.70;2252.80;;;;;;5010816;28;20129;-58
2022/11/22 07:22:52;;;;;;;47.95;29.55;;;128.60;2252.80;;;;;;5010869;28;20022;-57
2022/11/22 07:25:18;;;;;;;59.90;40.03;;;128.70;2252.80;;;;;;5010766;28;20455;-57
2022/11/22 07:27:44;;;;;;;130.50;84.88;;;153.60;2252.80;;;;;;5010689;28;20029;-58
2022/11/22 07:30:10;;;;;;;70.05;46.35;;;153.70;2252.80;;;;;;5010696;28;20026;-58
2022/11/22 07:32:35;;;;;;;53.13;37.75;;;128.90;2252.80;;;;;;5010915;28;20038;-58
2022/11/22 07:35:01;;;;;;;65.22;42.38;;;128.70;2252.80;;;;;;5010555;28;20495;-58
2022/11/22 07:37:29;;;;;;;72.95;48.05;;;128.80;2252.80;;;;;;5010819;28;20029;-58
2022/11/22 07:39:55;;;;;;;90.93;69.57;;;153.90;2252.80;;;;;;5010590;28;20034;-58
2022/11/22 07:42:20;;;;;;;57.78;38.33;;;153.80;2252.80;;;;;;5010357;28;20022;-58
2022/11/22 07:44:46;;;;;;;86.45;62.42;;;153.60;2252.80;;;;;;5010708;28;20026;-58
2022/11/22 07:47:11;;;;;;;64.75;42.83;;;154.10;2252.80;;;;;;5010293;28;20028;-58
2022/11/22 07:49:38;;;;;;;144.95;100.90;;;154.20;2252.80;;;;;;5010653;28;20037;-58
2022/11/22 07:52:04;;;;;;;100.03;69.55;;;179.30;2252.80;;;;;;5010329;28;20046;-58
2022/11/22 07:54:30;;;;;;;62.22;40.83;;;179.50;2252.80;;;;;;5009988;28;20083;-57
2022/11/22 07:56:56;;;;;;;69.47;54.83;;;179.50;2252.80;;;;;;5010418;28;20108;-57
2022/11/22 07:59:21;;;;;;;68.95;48.58;;;179.50;2252.80;;;;;;5010155;28;20472;-58
2022/11/22 08:01:47;;;;;;;95.63;66.88;;;179.60;2252.80;;;;;;5010591;28;20072;-56
2022/11/22 08:04:13;;;;;;;55.88;36.13;;;179.60;2252.80;;;;;;5010237;28;20500;-58
2022/11/22 08:06:39;;;;;;;64.18;43.17;;;179.80;2252.80;;;;;;5010817;28;20034;-57
2022/11/22 08:09:04;;;;;;;75.20;52.00;;;179.60;2252.80;;;;;;5010364;28;20419;-57
2022/11/22 08:11:30;;;;;;;59.80;42.88;;;179.80;2252.80;;;;;;5010000;28;20044;-58
2022/11/22 08:13:56;;;;;;;57.05;37.28;;;180.00;2252.80;;;;;;5010174;28;20033;-57
2022/11/22 08:16:22;;;;;;;62.35;38.65;;;179.80;2252.80;;;;;;5009780;28;20112;-58
2022/11/22 08:18:48;;;;;;;72.35;48.80;;;179.90;2252.80;;;;;;5010274;28;20030;-56
2022/11/22 08:21:16;;;;;;;53.95;36.17;;;180.10;2252.80;;;;;;5010168;28;20022;-58
2022/11/22 08:23:43;;;;;;;62.38;42.10;;;205.00;2252.80;;;;;;5009959;28;20069;-57
2022/11/22 08:26:11;;;;;;;78.82;52.67;;;204.90;2252.80;;;;;;5010427;28;20052;-57
2022/11/22 08:28:38;;;;;;;66.82;47.88;;;205.10;2252.80;;;;;;5010084;28;20045;-57
2022/11/22 08:31:13;;;;;;;78.60;57.80;;;179.70;2252.80;;;;;;5009821;28;20077;-58
2022/11/22 08:33:39;;;;;;;74.35;52.50;;;180.00;2252.80;;;;;;5014336;28;20373;-58
2022/11/22 08:36:05;;;;;;;74.03;53.40;;;180.10;2252.80;;;;;;5014040;28;20033;-57
2022/11/22 08:38:31;;;;;;;60.67;42.97;;;180.10;2252.80;;;;;;5013842;28;20084;-58
2022/11/22 08:40:57;;;;;;;63.47;42.55;;;180.00;2252.80;;;;;;5013853;28;20026;-57
2022/11/22 08:43:23;;;;;;;81.50;55.90;;;180.00;2252.80;;;;;;5013688;28;20030;-58
2022/11/22 08:45:53;;;;;;;64.38;45.30;;;179.60;2252.80;;;;;;5013629;28;20088;-60
2022/11/22 08:48:19;;;;;;;89.13;55.22;;;179.70;2252.80;;;;;;5014100;28;21112;-58
2022/11/22 08:50:57;;;;;;;110.28;68.25;;;179.50;2252.80;;;;;;5013757;28;20046;-58
2022/11/22 08:53:23;;;;;;;100.68;66.20;;;179.40;2252.80;;;;;;5013546;28;20034;-59
2022/11/22 08:55:49;;;;;;;103.82;67.65;;;179.70;2252.80;;;;;;5013628;28;20116;-59
2022/11/22 08:58:15;;;;;;;106.25;68.22;;;179.90;2252.80;;;;;;5013991;28;20030;-59
2022/11/22 09:00:41;;;;;;;95.50;63.63;;;180.00;2252.80;;;;;;5013786;28;20490;-60
2022/11/22 09:03:06;;;;;;;65.78;46.78;;;179.90;2252.80;;;;;;5013828;28;20061;-59
2022/11/22 09:05:32;;;;;;;72.57;48.00;;;179.70;2252.80;;;;;;5013409;28;20041;-59
2022/11/22 09:07:58;;;;;;;101.43;59.58;;;179.60;2252.80;;;;;;5013630;28;20033;-58
2022/11/22 09:10:24;;;;;;;70.15;50.88;;;179.80;2252.80;;;;;;5013383;28;20408;-59
2022/11/22 09:12:50;;;;;;;86.50;58.78;;;179.60;2252.80;;;;;;5013100;28;20429;-59
2022/11/22 09:15:16;;;;;;;97.63;69.80;;;179.20;2252.80;;;;;;5013435;28;20061;-59
2022/11/22 09:17:42;;;;;;;102.43;69.97;;;179.20;2252.80;;;;;;5013372;28;20042;-59
2022/11/22 09:20:09;;;;;;;231.00;134.30;;;179.40;2252.80;;;;;;5013385;28;20026;-58
2022/11/22 09:22:35;;;;;;;186.30;122.40;;;179.50;2252.80;;;;;;5013178;28;20069;-59
2022/11/22 09:25:01;;;;;;;203.10;122.10;;;179.60;2252.80;;;;;;5012964;28;20025;-59
2022/11/22 09:27:27;;;;;;;214.20;143.27;;;179.70;2252.80;;;;;;5012963;28;20037;-59
2022/11/22 09:29:53;;;;;;;195.02;132.57;;;179.60;2252.80;;;;;;5012896;28;20022;-59
2022/11/22 09:32:19;;;;;;;100.60;74.55;;;179.70;2252.80;;;;;;5012842;28;20113;-59
2022/11/22 09:34:44;;;;;;;111.70;76.32;;;179.60;2252.80;;;;;;5012843;28;20076;-59
2022/11/22 09:37:10;;;;;;;95.55;67.53;;;179.70;2252.80;;;;;;5012932;28;20376;-60
2022/11/22 09:39:36;;;;;;;101.63;68.78;;;179.80;2252.80;;;;;;5012821;28;20022;-58
2022/11/22 09:42:31;;;;;;;123.38;85.90;;;179.80;2252.80;;;;;;5012520;28;20026;-58
2022/11/22 09:45:11;;;;;;;141.48;96.70;;;179.80;2252.80;;;;;;5012010;28;20113;-58
2022/11/22 09:47:41;;;;;;;165.95;114.20;;;179.90;2252.80;;;;;;5012712;28;20038;-58
2022/11/22 09:50:28;;;;;;;78.25;49.20;;;179.90;2252.80;;;;;;5012761;28;20046;-58
2022/11/22 09:53:03;;;;;;;81.57;56.33;;;180.00;2252.80;;;;;;5012313;28;20037;-58
2022/11/22 09:55:33;;;;;;;99.28;70.00;;;180.10;2252.80;;;;;;5012528;28;20535;-58
2022/11/22 09:58:30;;;;;;;75.03;48.13;;;180.10;2252.80;;;;;;5012567;28;20057;-58
2022/11/22 10:01:06;;;;;;;52.88;39.10;;;180.10;2252.80;;;;;;5012688;28;20033;-58
2022/11/22 10:03:37;;;;;;;108.80;64.88;;;180.10;2252.80;;;;;;5012439;28;20504;-58
2022/11/22 10:06:09;;;;;;;111.57;77.07;;;204.90;2252.80;;;;;;5012396;28;20049;-58
2022/11/22 10:08:57;;;;;;;104.00;72.22;;;204.80;2252.80;;;;;;5012591;28;20034;-58
2022/11/22 10:11:39;;;;;;;84.88;61.40;;;205.00;2252.80;;;;;;5012156;28;20489;-59
2022/11/22 10:14:30;;;;;;;110.57;69.93;;;205.10;2252.80;;;;;;4991726;28;20378;-58
2022/11/22 10:17:19;;;;;;;92.80;64.03;;;205.00;2252.80;;;;;;5011801;28;20042;-58
2022/11/22 10:19:57;;;;;;;91.13;63.03;;;205.30;2252.80;;;;;;5012107;28;20030;-58
2022/11/22 10:22:24;;;;;;;84.00;59.72;;;205.40;2252.80;;;;;;5011968;28;20104;-59
2022/11/22 10:24:50;;;;;;;81.63;58.47;;;205.50;2252.80;;;;;;5011354;28;20482;-58
2022/11/22 10:27:16;;;;;;;94.45;70.32;;;205.60;2252.80;;;;;;5011791;28;20045;-59
2022/11/22 10:29:55;;;;;;;168.63;116.68;;;205.20;2252.80;;;;;;5011896;28;20030;-59
2022/11/22 10:32:32;;;;;;;155.57;110.25;;;205.00;2252.80;;;;;;5011590;28;20049;-59
2022/11/22 10:35:07;;;;;;;168.68;118.95;;;205.20;2252.80;;;;;;5011960;28;20022;-58
2022/11/22 10:37:53;;;;;;;137.45;99.88;;;205.20;2252.80;;;;;;5011670;28;20030;-57
2022/11/22 10:40:34;;;;;;;177.38;115.28;;;205.30;2252.80;;;;;;5012014;28;20052;-58
2022/11/22 10:43:24;;;;;;;209.93;147.52;;;205.20;2252.80;;;;;;5011661;28;20026;-58
2022/11/22 10:46:00;;;;;;;165.25;112.28;;;205.30;2252.80;;;;;;5004528;28;20030;-58
2022/11/22 10:48:31;;;;;;;189.05;130.38;;;205.40;2252.80;;;;;;5009240;28;20421;-58
2022/11/22 10:51:28;;;;;;;152.35;104.43;;;205.50;2252.80;;;;;;5008113;28;20033;-58
2022/11/22 10:54:06;;;;;;;173.55;123.18;;;205.50;2252.80;;;;;;5005647;28;20041;-59
2022/11/22 10:56:50;;;;;;;140.73;102.93;;;205.70;2252.80;;;;;;4997950;28;20020;-58
2022/11/22 10:59:39;;;;;;;111.80;85.22;;;205.70;2252.80;;;;;;5007936;28;20026;-58
2022/11/22 11:02:22;;;;;;;124.32;86.97;;;205.60;2252.80;;;;;;5007194;28;20101;-58
2022/11/22 11:04:49;;;;;;;131.15;97.15;;;230.50;2252.80;;;;;;5004727;28;20026;-59
2022/11/22 11:07:19;;;;;;;132.77;98.88;;;230.70;2252.80;;;;;;5011320;28;20080;-59
2022/11/22 11:09:49;;;;;;;165.43;122.47;;;205.70;2252.80;;;;;;5010978;28;20030;-59
2022/11/22 11:12:40;;;;;;;120.80;83.63;;;205.40;2252.80;;;;;;5010826;28;20168;-58
2022/11/22 11:15:17;;;;;;;115.32;82.97;;;205.20;2252.80;;;;;;5010928;28;20022;-58
2022/11/22 11:17:46;;;;;;;113.18;80.38;;;205.20;2252.80;;;;;;5010931;28;20069;-58
2022/11/22 11:20:25;;;;;;;116.93;78.35;;;205.20;2252.80;;;;;;5010987;28;20052;-58
2022/11/22 11:22:51;;;;;;;93.75;63.03;;;205.40;2252.80;;;;;;5010747;28;20075;-59
2022/11/22 11:25:47;;;;;;;113.25;75.97;;;205.50;2252.80;;;;;;5010962;28;20105;-58
2022/11/22 11:28:23;;;;;;;86.55;61.92;;;205.60;2252.80;;;;;;4912155;29;20560;-58
2022/11/22 11:31:09;;;;;;;115.80;84.28;;;205.70;2252.80;;;;;;4912011;29;20071;-59
2022/11/22 11:33:39;;;;;;;125.72;92.45;;;205.70;2252.80;;;;;;4911591;29;20047;-58
2022/11/22 11:36:12;;;;;;;129.02;86.55;;;205.60;2252.80;;;;;;4911135;29;20028;-57
2022/11/22 11:38:44;;;;;;;184.50;130.68;;;205.70;2252.80;;;;;;4911804;29;20120;-57
2022/11/22 11:41:26;;;;;;;127.28;81.13;;;230.40;2252.80;;;;;;4911891;29;20036;-59
2022/11/22 11:43:54;;;;;;;177.93;123.50;;;230.50;2252.80;;;;;;4911608;29;20619;-59
2022/11/22 11:46:27;;;;;;;132.85;93.20;;;230.50;2252.80;;;;;;4911445;29;20255;-59
2022/11/22 11:49:08;;;;;;;94.32;62.67;;;230.60;2252.80;;;;;;4911141;29;20076;-58
2022/11/22 11:51:41;;;;;;;113.35;74.85;;;230.60;2252.80;;;;;;4911249;29;20032;-58
2022/11/22 11:54:19;;;;;;;119.70;81.32;;;230.70;2252.80;;;;;;4911432;29;20085;-59
2022/11/22 11:56:54;;;;;;;100.40;68.75;;;230.80;2252.80;;;;;;4911204;29;20478;-59
2022/11/22 11:59:22;;;;;;;60.92;42.92;;;230.80;2252.80;;;;;;4911148;29;20096;-58
2022/11/22 12:02:05;;;;;;;64.63;42.58;;;230.80;2252.80;;;;;;4911489;29;20483;-58
2022/11/22 12:04:34;;;;;;;64.15;43.47;;;230.70;2252.80;;;;;;4954182;28;20025;-58
2022/11/22 12:07:03;;;;;;;53.72;35.90;;;230.80;2252.80;;;;;;4998882;28;20026;-59
2022/11/22 12:09:36;;;;;;;43.60;29.50;;;230.70;2252.80;;;;;;4998962;28;20022;-59
2022/11/22 12:12:10;;;;;;;58.05;35.17;;;230.60;2252.80;;;;;;4999672;28;20037;-58
2022/11/22 12:14:38;;;;;;;74.30;41.35;;;230.60;2252.80;;;;;;5000135;28;20034;-59
2022/11/22 12:17:13;;;;;;;81.32;51.42;;;230.70;2252.80;;;;;;5007145;28;20054;-59
2022/11/22 12:20:04;;;;;;;83.40;49.70;;;230.70;2252.80;;;;;;5007968;28;20138;-59
2022/11/22 12:22:45;;;;;;;67.70;45.20;;;230.90;2252.80;;;;;;5011277;28;20049;-59
2022/11/22 12:25:33;;;;;;;72.72;52.42;;;230.80;2252.80;;;;;;5010262;28;20022;-58